Repto San Felipe, Puerto Rico
Current Conditions -  °F | °C
As of 12:53 AM on Sunday 21 Dec 2014 (Local Time) from TJNR Reporting Station
Few Clouds Few Clouds  
Wind Chill: 78°   Ceiling: Unl
Heat Index: 80°   Visibility: 10mi
Dew Point: 71°   Wind: 9mph
Humidity: 79%   Direction: 80°E
Pressure: 30.07"   Gusts: NA
Location:  18.1494°N, 65.8294°W
Report Text: TJNR 210453Z AUTO 08008KT 10SM FEW025 26/22 A3007 RMK AO2 SLP181 T02560217 $
Loading
Personal Weather Stations






























Interactive Weather Map New forecast layout! Learn more

10-Day Weather Forecast

Advertisements
Track Severe Weather on mobile